sensor_id;sensor_type;location;lat;lon;timestamp;pressure;altitude;pressure_sealevel;temperature;humidity
30339;BME280;795;49.296;11.348;2023-03-04T00:00:30;96713.66;;;-3.01;100.00
30339;BME280;795;49.296;11.348;2023-03-04T00:02:57;96723.94;;;-2.96;100.00
30339;BME280;795;49.296;11.348;2023-03-04T00:05:24;96730.72;;;-2.92;100.00
30339;BME280;795;49.296;11.348;2023-03-04T00:07:51;96707.06;;;-2.92;100.00
30339;BME280;795;49.296;11.348;2023-03-04T00:10:18;96716.53;;;-2.73;100.00
30339;BME280;795;49.296;11.348;2023-03-04T00:12:45;96683.03;;;-2.85;100.00
30339;BME280;795;49.296;11.348;2023-03-04T00:15:12;96711.88;;;-3.00;100.00
30339;BME280;795;49.296;11.348;2023-03-04T00:17:39;96723.03;;;-2.80;100.00
30339;BME280;795;49.296;11.348;2023-03-04T00:20:07;96717.91;;;-2.98;100.00
30339;BME280;795;49.296;11.348;2023-03-04T00:22:34;96715.75;;;-3.07;100.00
30339;BME280;795;49.296;11.348;2023-03-04T00:25:01;96716.69;;;-3.08;100.00
30339;BME280;795;49.296;11.348;2023-03-04T00:27:28;96711.59;;;-3.11;100.00
30339;BME280;795;49.296;11.348;2023-03-04T00:29:56;96718.31;;;-3.06;100.00
30339;BME280;795;49.296;11.348;2023-03-04T00:32:23;96713.44;;;-3.13;100.00
30339;BME280;795;49.296;11.348;2023-03-04T00:34:50;96690.94;;;-3.34;100.00
30339;BME280;795;49.296;11.348;2023-03-04T00:37:17;96733.38;;;-3.26;100.00
30339;BME280;795;49.296;11.348;2023-03-04T00:39:44;96709.75;;;-3.26;100.00
30339;BME280;795;49.296;11.348;2023-03-04T00:42:10;96711.81;;;-3.16;100.00
30339;BME280;795;49.296;11.348;2023-03-04T00:44:37;96723.94;;;-3.13;100.00
30339;BME280;795;49.296;11.348;2023-03-04T00:47:04;96728.81;;;-3.06;100.00
30339;BME280;795;49.296;11.348;2023-03-04T00:49:31;96713.72;;;-3.02;100.00
30339;BME280;795;49.296;11.348;2023-03-04T00:51:58;96729.22;;;-2.81;100.00
30339;BME280;795;49.296;11.348;2023-03-04T00:54:25;96689.91;;;-2.82;100.00
30339;BME280;795;49.296;11.348;2023-03-04T00:56:53;96711.63;;;-2.63;100.00
30339;BME280;795;49.296;11.348;2023-03-04T00:59:19;96708.09;;;-2.62;100.00
30339;BME280;795;49.296;11.348;2023-03-04T01:01:46;96717.41;;;-2.56;100.00
30339;BME280;795;49.296;11.348;2023-03-04T01:04:13;96716.31;;;-2.52;100.00
30339;BME280;795;49.296;11.348;2023-03-04T01:06:40;96719.28;;;-2.58;100.00
30339;BME280;795;49.296;11.348;2023-03-04T01:09:07;96716.22;;;-2.51;100.00
30339;BME280;795;49.296;11.348;2023-03-04T01:11:34;96701.38;;;-2.67;100.00
30339;BME280;795;49.296;11.348;2023-03-04T01:14:01;96699.91;;;-2.73;100.00
30339;BME280;795;49.296;11.348;2023-03-04T01:16:28;96695.06;;;-2.81;100.00
30339;BME280;795;49.296;11.348;2023-03-04T01:18:55;96703.19;;;-2.85;100.00
30339;BME280;795;49.296;11.348;2023-03-04T01:21:22;96705.97;;;-2.88;100.00
30339;BME280;795;49.296;11.348;2023-03-04T01:23:49;96699.13;;;-2.91;100.00
30339;BME280;795;49.296;11.348;2023-03-04T01:26:16;96703.34;;;-2.88;100.00
30339;BME280;795;49.296;11.348;2023-03-04T01:28:43;96707.53;;;-2.84;100.00
30339;BME280;795;49.296;11.348;2023-03-04T01:31:10;96699.72;;;-2.86;100.00
30339;BME280;795;49.296;11.348;2023-03-04T01:33:37;96701.97;;;-2.95;100.00
30339;BME280;795;49.296;11.348;2023-03-04T01:36:05;96678.97;;;-3.07;100.00
30339;BME280;795;49.296;11.348;2023-03-04T01:38:32;96691.91;;;-2.87;100.00
30339;BME280;795;49.296;11.348;2023-03-04T01:40:59;96705.53;;;-2.96;100.00
30339;BME280;795;49.296;11.348;2023-03-04T01:43:31;96704.81;;;-2.83;100.00
30339;BME280;795;49.296;11.348;2023-03-04T01:45:59;96699.91;;;-2.89;100.00
30339;BME280;795;49.296;11.348;2023-03-04T01:48:34;96703.94;;;-2.83;100.00
30339;BME280;795;49.296;11.348;2023-03-04T01:51:14;96710.81;;;-2.81;100.00
30339;BME280;795;49.296;11.348;2023-03-04T01:53:46;96706.50;;;-2.82;100.00
30339;BME280;795;49.296;11.348;2023-03-04T01:56:27;96671.47;;;-2.98;100.00
30339;BME280;795;49.296;11.348;2023-03-04T01:59:23;96692.25;;;-2.93;100.00
30339;BME280;795;49.296;11.348;2023-03-04T02:01:55;96708.38;;;-2.84;100.00
30339;BME280;795;49.296;11.348;2023-03-04T02:04:29;96703.81;;;-2.80;100.00
30339;BME280;795;49.296;11.348;2023-03-04T02:07:00;96705.31;;;-2.92;100.00
30339;BME280;795;49.296;11.348;2023-03-04T02:09:31;96703.69;;;-2.94;100.00
30339;BME280;795;49.296;11.348;2023-03-04T02:11:59;96693.56;;;-3.02;100.00
30339;BME280;795;49.296;11.348;2023-03-04T02:14:26;96707.09;;;-3.09;100.00
30339;BME280;795;49.296;11.348;2023-03-04T02:16:53;96704.22;;;-3.05;100.00
30339;BME280;795;49.296;11.348;2023-03-04T02:22:37;96690.97;;;-3.19;100.00
30339;BME280;795;49.296;11.348;2023-03-04T02:25:17;96692.31;;;-3.27;100.00
30339;BME280;795;49.296;11.348;2023-03-04T02:27:47;96681.81;;;-3.27;100.00
30339;BME280;795;49.296;11.348;2023-03-04T02:30:20;96678.41;;;-3.29;100.00
30339;BME280;795;49.296;11.348;2023-03-04T02:32:49;96685.09;;;-3.24;100.00
30339;BME280;795;49.296;11.348;2023-03-04T02:35:18;96679.09;;;-3.26;100.00
30339;BME280;795;49.296;11.348;2023-03-04T02:37:46;96682.81;;;-3.30;100.00
30339;BME280;795;49.296;11.348;2023-03-04T02:40:30;96675.34;;;-3.38;100.00
30339;BME280;795;49.296;11.348;2023-03-04T02:43:00;96672.72;;;-3.38;100.00
30339;BME280;795;49.296;11.348;2023-03-04T02:45:44;96668.09;;;-3.50;100.00
30339;BME280;795;49.296;11.348;2023-03-04T02:48:19;96659.50;;;-3.53;100.00
30339;BME280;795;49.296;11.348;2023-03-04T02:50:52;96664.22;;;-3.60;100.00
30339;BME280;795;49.296;11.348;2023-03-04T02:53:21;96655.44;;;-3.59;100.00
30339;BME280;795;49.296;11.348;2023-03-04T02:55:48;96667.38;;;-3.70;100.00
30339;BME280;795;49.296;11.348;2023-03-04T02:58:15;96651.44;;;-3.66;100.00
30339;BME280;795;49.296;11.348;2023-03-04T03:00:42;96657.44;;;-3.64;100.00
30339;BME280;795;49.296;11.348;2023-03-04T03:03:09;96657.13;;;-3.75;100.00
30339;BME280;795;49.296;11.348;2023-03-04T03:05:37;96668.47;;;-3.57;100.00
30339;BME280;795;49.296;11.348;2023-03-04T03:08:05;96660.22;;;-3.67;100.00
30339;BME280;795;49.296;11.348;2023-03-04T03:10:33;96648.00;;;-3.68;100.00
30339;BME280;795;49.296;11.348;2023-03-04T03:13:00;96645.09;;;-3.79;100.00
30339;BME280;795;49.296;11.348;2023-03-04T03:15:27;96647.47;;;-3.91;100.00
30339;BME280;795;49.296;11.348;2023-03-04T03:17:53;96651.63;;;-4.05;100.00
30339;BME280;795;49.296;11.348;2023-03-04T03:20:20;96655.69;;;-4.16;100.00
30339;BME280;795;49.296;11.348;2023-03-04T03:22:47;96651.47;;;-4.37;100.00
30339;BME280;795;49.296;11.348;2023-03-04T03:25:15;96640.00;;;-4.71;100.00
30339;BME280;795;49.296;11.348;2023-03-04T03:27:43;96652.78;;;-4.64;100.00
30339;BME280;795;49.296;11.348;2023-03-04T03:30:15;96635.66;;;-4.72;100.00
30339;BME280;795;49.296;11.348;2023-03-04T03:32:43;96638.16;;;-4.87;100.00
30339;BME280;795;49.296;11.348;2023-03-04T03:35:10;96636.78;;;-4.77;100.00
30339;BME280;795;49.296;11.348;2023-03-04T03:37:37;96651.31;;;-4.70;100.00
30339;BME280;795;49.296;11.348;2023-03-04T03:40:05;96637.16;;;-4.85;100.00
30339;BME280;795;49.296;11.348;2023-03-04T03:42:32;96646.63;;;-4.63;100.00
30339;BME280;795;49.296;11.348;2023-03-04T03:44:59;96629.06;;;-4.61;100.00
30339;BME280;795;49.296;11.348;2023-03-04T03:47:27;96640.41;;;-4.61;100.00
30339;BME280;795;49.296;11.348;2023-03-04T03:49:53;96639.59;;;-4.44;100.00
30339;BME280;795;49.296;11.348;2023-03-04T03:52:23;96638.28;;;-4.36;100.00
30339;BME280;795;49.296;11.348;2023-03-04T03:54:50;96635.69;;;-4.36;100.00
30339;BME280;795;49.296;11.348;2023-03-04T03:57:17;96618.78;;;-4.47;100.00
30339;BME280;795;49.296;11.348;2023-03-04T03:59:44;96652.84;;;-4.29;100.00
30339;BME280;795;49.296;11.348;2023-03-04T04:02:11;96649.41;;;-4.31;100.00
30339;BME280;795;49.296;11.348;2023-03-04T04:04:38;96632.91;;;-4.33;100.00
30339;BME280;795;49.296;11.348;2023-03-04T04:07:05;96654.91;;;-4.18;100.00
30339;BME280;795;49.296;11.348;2023-03-04T04:09:32;96651.00;;;-4.10;100.00
30339;BME280;795;49.296;11.348;2023-03-04T04:11:59;96659.78;;;-4.11;100.00
30339;BME280;795;49.296;11.348;2023-03-04T04:14:25;96651.44;;;-4.19;100.00
30339;BME280;795;49.296;11.348;2023-03-04T04:16:52;96654.47;;;-4.09;100.00
30339;BME280;795;49.296;11.348;2023-03-04T04:19:20;96654.31;;;-4.06;100.00
30339;BME280;795;49.296;11.348;2023-03-04T04:21:47;96653.06;;;-4.16;100.00
30339;BME280;795;49.296;11.348;2023-03-04T04:24:15;96653.91;;;-4.16;100.00
30339;BME280;795;49.296;11.348;2023-03-04T04:26:42;96676.38;;;-4.10;100.00
30339;BME280;795;49.296;11.348;2023-03-04T04:29:12;96678.84;;;-4.07;100.00
30339;BME280;795;49.296;11.348;2023-03-04T04:31:41;96666.94;;;-4.14;100.00
30339;BME280;795;49.296;11.348;2023-03-04T04:34:08;96679.91;;;-4.11;100.00
30339;BME280;795;49.296;11.348;2023-03-04T04:36:35;96674.66;;;-4.11;100.00
30339;BME280;795;49.296;11.348;2023-03-04T04:39:03;96700.06;;;-3.94;100.00
30339;BME280;795;49.296;11.348;2023-03-04T04:41:40;96665.28;;;-3.98;100.00
30339;BME280;795;49.296;11.348;2023-03-04T04:44:09;96697.31;;;-3.74;100.00
30339;BME280;795;49.296;11.348;2023-03-04T04:46:37;96697.56;;;-3.62;100.00
30339;BME280;795;49.296;11.348;2023-03-04T04:49:06;96698.72;;;-3.50;100.00
30339;BME280;795;49.296;11.348;2023-03-04T04:51:36;96699.34;;;-3.45;100.00
30339;BME280;795;49.296;11.348;2023-03-04T04:54:04;96706.97;;;-3.41;100.00
30339;BME280;795;49.296;11.348;2023-03-04T04:56:32;96696.56;;;-3.42;100.00
30339;BME280;795;49.296;11.348;2023-03-04T04:59:04;96698.47;;;-3.46;100.00
30339;BME280;795;49.296;11.348;2023-03-04T05:01:31;96690.47;;;-3.43;100.00
30339;BME280;795;49.296;11.348;2023-03-04T05:03:58;96696.19;;;-3.34;100.00
30339;BME280;795;49.296;11.348;2023-03-04T05:06:25;96667.09;;;-3.47;100.00
30339;BME280;795;49.296;11.348;2023-03-04T05:08:52;96696.25;;;-3.36;100.00
30339;BME280;795;49.296;11.348;2023-03-04T05:11:20;96700.47;;;-3.33;100.00
30339;BME280;795;49.296;11.348;2023-03-04T05:13:48;96712.06;;;-3.38;100.00
30339;BME280;795;49.296;11.348;2023-03-04T05:16:16;96674.72;;;-3.60;100.00
30339;BME280;795;49.296;11.348;2023-03-04T05:18:44;96674.56;;;-3.57;100.00
30339;BME280;795;49.296;11.348;2023-03-04T05:21:12;96703.97;;;-3.50;100.00
30339;BME280;795;49.296;11.348;2023-03-04T05:23:41;96714.16;;;-3.44;100.00
30339;BME280;795;49.296;11.348;2023-03-04T05:26:15;96716.69;;;-3.43;100.00
30339;BME280;795;49.296;11.348;2023-03-04T05:28:44;96695.31;;;-3.52;100.00
30339;BME280;795;49.296;11.348;2023-03-04T05:31:11;96692.22;;;-3.43;100.00
30339;BME280;795;49.296;11.348;2023-03-04T05:33:38;96715.22;;;-3.31;100.00
30339;BME280;795;49.296;11.348;2023-03-04T05:36:06;96710.13;;;-3.34;100.00
30339;BME280;795;49.296;11.348;2023-03-04T05:38:34;96700.88;;;-3.41;100.00
30339;BME280;795;49.296;11.348;2023-03-04T05:41:05;96726.06;;;-3.20;100.00
30339;BME280;795;49.296;11.348;2023-03-04T05:43:34;96725.66;;;-3.29;100.00
30339;BME280;795;49.296;11.348;2023-03-04T05:46:03;96715.63;;;-3.39;100.00
30339;BME280;795;49.296;11.348;2023-03-04T05:48:30;96709.50;;;-3.39;100.00
30339;BME280;795;49.296;11.348;2023-03-04T05:51:00;96728.13;;;-3.26;100.00
30339;BME280;795;49.296;11.348;2023-03-04T05:53:28;96716.16;;;-3.32;100.00
30339;BME280;795;49.296;11.348;2023-03-04T05:55:55;96724.63;;;-3.27;100.00
30339;BME280;795;49.296;11.348;2023-03-04T05:58:22;96727.50;;;-3.31;100.00
30339;BME280;795;49.296;11.348;2023-03-04T06:00:49;96727.44;;;-3.30;100.00
30339;BME280;795;49.296;11.348;2023-03-04T06:03:21;96738.16;;;-3.17;100.00
30339;BME280;795;49.296;11.348;2023-03-04T06:05:48;96724.88;;;-3.31;100.00
30339;BME280;795;49.296;11.348;2023-03-04T06:08:15;96739.09;;;-3.18;100.00
30339;BME280;795;49.296;11.348;2023-03-04T06:10:42;96743.56;;;-3.20;100.00
30339;BME280;795;49.296;11.348;2023-03-04T06:13:09;96740.72;;;-3.16;100.00
30339;BME280;795;49.296;11.348;2023-03-04T06:15:39;96750.88;;;-3.10;100.00
30339;BME280;795;49.296;11.348;2023-03-04T06:18:07;96757.06;;;-3.11;100.00
30339;BME280;795;49.296;11.348;2023-03-04T06:20:34;96763.47;;;-2.99;100.00
30339;BME280;795;49.296;11.348;2023-03-04T06:23:02;96757.59;;;-3.04;100.00
30339;BME280;795;49.296;11.348;2023-03-04T06:25:30;96764.09;;;-2.94;100.00
30339;BME280;795;49.296;11.348;2023-03-04T06:27:57;96766.00;;;-2.81;100.00
30339;BME280;795;49.296;11.348;2023-03-04T06:30:24;96759.31;;;-2.86;100.00
30339;BME280;795;49.296;11.348;2023-03-04T06:32:51;96769.47;;;-2.80;100.00
30339;BME280;795;49.296;11.348;2023-03-04T06:35:18;96750.47;;;-2.85;100.00
30339;BME280;795;49.296;11.348;2023-03-04T06:37:45;96767.91;;;-2.67;100.00
30339;BME280;795;49.296;11.348;2023-03-04T06:40:13;96773.44;;;-2.56;100.00
30339;BME280;795;49.296;11.348;2023-03-04T06:42:41;96783.91;;;-2.54;100.00
30339;BME280;795;49.296;11.348;2023-03-04T06:45:10;96762.16;;;-2.58;100.00
30339;BME280;795;49.296;11.348;2023-03-04T06:47:37;96771.31;;;-2.65;100.00
30339;BME280;795;49.296;11.348;2023-03-04T06:50:05;96770.22;;;-2.61;100.00
30339;BME280;795;49.296;11.348;2023-03-04T06:52:32;96790.16;;;-2.57;100.00
30339;BME280;795;49.296;11.348;2023-03-04T06:54:59;96789.31;;;-2.57;100.00
30339;BME280;795;49.296;11.348;2023-03-04T06:57:26;96784.13;;;-2.59;100.00
30339;BME280;795;49.296;11.348;2023-03-04T06:59:53;96795.56;;;-2.60;100.00
30339;BME280;795;49.296;11.348;2023-03-04T07:02:20;96798.25;;;-2.61;100.00
30339;BME280;795;49.296;11.348;2023-03-04T07:04:48;96782.59;;;-2.63;100.00
30339;BME280;795;49.296;11.348;2023-03-04T07:07:15;96808.31;;;-2.52;100.00
30339;BME280;795;49.296;11.348;2023-03-04T07:09:42;96792.44;;;-2.66;100.00
30339;BME280;795;49.296;11.348;2023-03-04T07:12:09;96794.19;;;-2.67;100.00
30339;BME280;795;49.296;11.348;2023-03-04T07:14:35;96808.22;;;-2.51;100.00
30339;BME280;795;49.296;11.348;2023-03-04T07:17:03;96793.63;;;-2.56;100.00
30339;BME280;795;49.296;11.348;2023-03-04T07:19:30;96811.47;;;-2.46;100.00
30339;BME280;795;49.296;11.348;2023-03-04T07:21:56;96812.31;;;-2.45;100.00
30339;BME280;795;49.296;11.348;2023-03-04T07:24:23;96776.56;;;-2.65;100.00
30339;BME280;795;49.296;11.348;2023-03-04T07:26:50;96813.09;;;-2.43;100.00
30339;BME280;795;49.296;11.348;2023-03-04T07:29:17;96824.34;;;-2.41;100.00
30339;BME280;795;49.296;11.348;2023-03-04T07:31:44;96809.94;;;-2.50;100.00
30339;BME280;795;49.296;11.348;2023-03-04T07:34:13;96812.38;;;-2.47;100.00
30339;BME280;795;49.296;11.348;2023-03-04T07:36:41;96806.28;;;-2.47;100.00
30339;BME280;795;49.296;11.348;2023-03-04T07:39:10;96788.81;;;-2.48;100.00
30339;BME280;795;49.296;11.348;2023-03-04T07:41:40;96811.81;;;-2.36;100.00
30339;BME280;795;49.296;11.348;2023-03-04T07:44:10;96829.97;;;-2.32;100.00
30339;BME280;795;49.296;11.348;2023-03-04T07:46:39;96836.22;;;-2.17;100.00
30339;BME280;795;49.296;11.348;2023-03-04T07:49:07;96806.84;;;-2.25;100.00
30339;BME280;795;49.296;11.348;2023-03-04T07:51:34;96831.41;;;-2.09;100.00
30339;BME280;795;49.296;11.348;2023-03-04T07:54:01;96828.78;;;-1.93;100.00
30339;BME280;795;49.296;11.348;2023-03-04T07:56:32;96831.94;;;-1.87;100.00
30339;BME280;795;49.296;11.348;2023-03-04T07:59:01;96836.34;;;-1.87;100.00
30339;BME280;795;49.296;11.348;2023-03-04T08:01:35;96825.97;;;-1.90;100.00
30339;BME280;795;49.296;11.348;2023-03-04T08:04:06;96829.72;;;-1.79;100.00
30339;BME280;795;49.296;11.348;2023-03-04T08:06:34;96830.91;;;-1.69;100.00
30339;BME280;795;49.296;11.348;2023-03-04T08:09:05;96827.69;;;-1.74;100.00
30339;BME280;795;49.296;11.348;2023-03-04T08:11:36;96820.81;;;-1.76;100.00
30339;BME280;795;49.296;11.348;2023-03-04T08:14:03;96817.91;;;-1.72;100.00
30339;BME280;795;49.296;11.348;2023-03-04T08:16:31;96830.50;;;-1.61;100.00
30339;BME280;795;49.296;11.348;2023-03-04T08:19:04;96812.06;;;-1.61;100.00
30339;BME280;795;49.296;11.348;2023-03-04T08:21:32;96803.69;;;-1.68;100.00
30339;BME280;795;49.296;11.348;2023-03-04T08:24:01;96816.91;;;-1.54;100.00
30339;BME280;795;49.296;11.348;2023-03-04T08:26:42;96816.56;;;-1.48;100.00
30339;BME280;795;49.296;11.348;2023-03-04T08:29:23;96813.25;;;-1.51;100.00
30339;BME280;795;49.296;11.348;2023-03-04T08:31:53;96817.34;;;-1.46;100.00
30339;BME280;795;49.296;11.348;2023-03-04T08:34:26;96825.53;;;-1.20;100.00
30339;BME280;795;49.296;11.348;2023-03-04T08:36:54;96822.63;;;-1.16;100.00
30339;BME280;795;49.296;11.348;2023-03-04T08:39:21;96808.69;;;-1.18;100.00
30339;BME280;795;49.296;11.348;2023-03-04T08:41:48;96819.38;;;-1.05;100.00
30339;BME280;795;49.296;11.348;2023-03-04T08:44:16;96787.16;;;-1.24;100.00
30339;BME280;795;49.296;11.348;2023-03-04T08:46:42;96806.56;;;-1.11;100.00
30339;BME280;795;49.296;11.348;2023-03-04T08:49:13;96789.94;;;-1.12;100.00
30339;BME280;795;49.296;11.348;2023-03-04T08:51:40;96791.94;;;-0.87;100.00
30339;BME280;795;49.296;11.348;2023-03-04T08:54:07;96784.31;;;-0.92;100.00
30339;BME280;795;49.296;11.348;2023-03-04T08:56:34;96796.13;;;-0.83;100.00
30339;BME280;795;49.296;11.348;2023-03-04T08:59:01;96783.28;;;-0.89;100.00
30339;BME280;795;49.296;11.348;2023-03-04T09:03:34;96784.41;;;-0.93;100.00
30339;BME280;795;49.296;11.348;2023-03-04T09:06:03;96802.13;;;-0.81;100.00
30339;BME280;795;49.296;11.348;2023-03-04T09:08:31;96790.44;;;-0.91;100.00
30339;BME280;795;49.296;11.348;2023-03-04T09:10:58;96802.31;;;-0.84;100.00
30339;BME280;795;49.296;11.348;2023-03-04T09:13:30;96805.06;;;-0.86;100.00
30339;BME280;795;49.296;11.348;2023-03-04T09:15:58;96800.63;;;-0.85;100.00
30339;BME280;795;49.296;11.348;2023-03-04T09:18:27;96775.06;;;-0.99;100.00
30339;BME280;795;49.296;11.348;2023-03-04T09:20:54;96796.59;;;-0.77;100.00
30339;BME280;795;49.296;11.348;2023-03-04T09:23:22;96805.66;;;-0.67;100.00
30339;BME280;795;49.296;11.348;2023-03-04T09:25:49;96799.22;;;-0.77;100.00
30339;BME280;795;49.296;11.348;2023-03-04T09:28:18;96788.50;;;-0.74;100.00
30339;BME280;795;49.296;11.348;2023-03-04T09:30:45;96796.03;;;-0.68;100.00
30339;BME280;795;49.296;11.348;2023-03-04T09:33:13;96808.31;;;-0.52;100.00
30339;BME280;795;49.296;11.348;2023-03-04T09:35:41;96803.63;;;-0.47;100.00
30339;BME280;795;49.296;11.348;2023-03-04T09:38:08;96792.13;;;-0.46;100.00
30339;BME280;795;49.296;11.348;2023-03-04T09:40:47;96793.34;;;-0.38;100.00
30339;BME280;795;49.296;11.348;2023-03-04T09:43:25;96789.56;;;-0.34;100.00
30339;BME280;795;49.296;11.348;2023-03-04T09:46:02;96795.53;;;-0.16;100.00
30339;BME280;795;49.296;11.348;2023-03-04T09:48:44;96792.13;;;-0.18;100.00
30339;BME280;795;49.296;11.348;2023-03-04T09:54:20;96788.25;;;0.02;100.00
30339;BME280;795;49.296;11.348;2023-03-04T10:06:02;96794.97;;;0.07;100.00
30339;BME280;795;49.296;11.348;2023-03-04T10:11:58;96783.44;;;0.08;100.00
30339;BME280;795;49.296;11.348;2023-03-04T10:14:43;96782.84;;;0.17;100.00
30339;BME280;795;49.296;11.348;2023-03-04T10:17:37;96785.75;;;0.27;100.00
30339;BME280;795;49.296;11.348;2023-03-04T10:23:27;96781.38;;;0.13;100.00
30339;BME280;795;49.296;11.348;2023-03-04T10:25:55;96773.16;;;0.18;100.00
30339;BME280;795;49.296;11.348;2023-03-04T10:28:29;96777.66;;;0.30;100.00
30339;BME280;795;49.296;11.348;2023-03-04T10:31:30;96779.75;;;0.51;100.00
30339;BME280;795;49.296;11.348;2023-03-04T10:34:00;96773.13;;;0.58;100.00
30339;BME280;795;49.296;11.348;2023-03-04T10:39:21;96779.56;;;0.81;100.00
30339;BME280;795;49.296;11.348;2023-03-04T10:44:33;96767.09;;;0.83;100.00
30339;BME280;795;49.296;11.348;2023-03-04T10:47:00;96767.38;;;1.05;100.00
30339;BME280;795;49.296;11.348;2023-03-04T10:49:28;96749.53;;;1.09;100.00
30339;BME280;795;49.296;11.348;2023-03-04T10:52:33;96769.91;;;1.07;100.00
30339;BME280;795;49.296;11.348;2023-03-04T10:55:19;96763.59;;;1.22;100.00
30339;BME280;795;49.296;11.348;2023-03-04T10:57:53;96760.31;;;1.18;100.00
30339;BME280;795;49.296;11.348;2023-03-04T11:00:36;96765.06;;;1.26;100.00
30339;BME280;795;49.296;11.348;2023-03-04T11:06:21;96748.16;;;1.41;100.00
30339;BME280;795;49.296;11.348;2023-03-04T11:08:58;96757.81;;;1.55;100.00
30339;BME280;795;49.296;11.348;2023-03-04T11:11:41;96756.22;;;1.40;100.00
30339;BME280;795;49.296;11.348;2023-03-04T11:14:23;96757.38;;;1.36;100.00
30339;BME280;795;49.296;11.348;2023-03-04T11:16:57;96753.56;;;1.40;100.00
30339;BME280;795;49.296;11.348;2023-03-04T11:19:38;96733.88;;;1.31;100.00
30339;BME280;795;49.296;11.348;2023-03-04T11:22:16;96743.53;;;1.45;100.00
30339;BME280;795;49.296;11.348;2023-03-04T11:24:55;96740.56;;;1.49;100.00
30339;BME280;795;49.296;11.348;2023-03-04T11:27:47;96750.16;;;1.63;100.00
30339;BME280;795;49.296;11.348;2023-03-04T11:30:31;96756.22;;;1.40;100.00
30339;BME280;795;49.296;11.348;2023-03-04T11:33:19;96729.94;;;1.24;100.00
30339;BME280;795;49.296;11.348;2023-03-04T11:35:52;96745.50;;;1.41;100.00
30339;BME280;795;49.296;11.348;2023-03-04T11:38:35;96745.31;;;1.44;100.00
30339;BME280;795;49.296;11.348;2023-03-04T11:41:21;96741.28;;;1.51;100.00
30339;BME280;795;49.296;11.348;2023-03-04T11:43:50;96738.75;;;1.62;100.00
30339;BME280;795;49.296;11.348;2023-03-04T11:47:06;96729.13;;;1.74;100.00
30339;BME280;795;49.296;11.348;2023-03-04T11:50:29;96716.22;;;1.69;100.00
30339;BME280;795;49.296;11.348;2023-03-04T11:53:32;96722.97;;;1.73;100.00
30339;BME280;795;49.296;11.348;2023-03-04T11:56:34;96709.88;;;1.47;100.00
30339;BME280;795;49.296;11.348;2023-03-04T12:00:01;96691.47;;;1.20;100.00
30339;BME280;795;49.296;11.348;2023-03-04T12:10:03;96708.56;;;1.65;100.00
30339;BME280;795;49.296;11.348;2023-03-04T12:13:50;96693.84;;;1.73;100.00
30339;BME280;795;49.296;11.348;2023-03-04T12:17:16;96675.13;;;1.76;100.00
30339;BME280;795;49.296;11.348;2023-03-04T12:22:50;96675.53;;;1.70;100.00
30339;BME280;795;49.296;11.348;2023-03-04T12:25:36;96686.34;;;1.67;100.00
30339;BME280;795;49.296;11.348;2023-03-04T12:28:46;96678.56;;;1.89;100.00
30339;BME280;795;49.296;11.348;2023-03-04T12:31:40;96679.44;;;1.77;100.00
30339;BME280;795;49.296;11.348;2023-03-04T12:38:11;96665.56;;;1.86;100.00
30339;BME280;795;49.296;11.348;2023-03-04T12:44:17;96669.34;;;1.95;100.00
30339;BME280;795;49.296;11.348;2023-03-04T12:47:30;96668.84;;;1.77;100.00
30339;BME280;795;49.296;11.348;2023-03-04T12:50:41;96642.13;;;1.57;100.00
30339;BME280;795;49.296;11.348;2023-03-04T12:53:34;96650.34;;;1.65;100.00
30339;BME280;795;49.296;11.348;2023-03-04T12:56:05;96643.13;;;1.79;100.00
30339;BME280;795;49.296;11.348;2023-03-04T12:58:36;96674.78;;;1.81;100.00
30339;BME280;795;49.296;11.348;2023-03-04T13:01:40;96639.81;;;1.40;100.00
30339;BME280;795;49.296;11.348;2023-03-04T13:04:29;96634.88;;;1.35;100.00
30339;BME280;795;49.296;11.348;2023-03-04T13:10:17;96668.19;;;1.25;100.00
30339;BME280;795;49.296;11.348;2023-03-04T13:12:57;96660.56;;;1.33;100.00
30339;BME280;795;49.296;11.348;2023-03-04T13:15:31;96656.31;;;1.43;100.00
30339;BME280;795;49.296;11.348;2023-03-04T13:23:41;96645.31;;;1.49;100.00
30339;BME280;795;49.296;11.348;2023-03-04T13:26:30;96648.28;;;1.45;100.00
30339;BME280;795;49.296;11.348;2023-03-04T13:32:10;96653.56;;;1.57;100.00
30339;BME280;795;49.296;11.348;2023-03-04T13:34:51;96624.06;;;1.38;100.00
30339;BME280;795;49.296;11.348;2023-03-04T13:37:36;96654.19;;;1.61;100.00
30339;BME280;795;49.296;11.348;2023-03-04T13:42:50;96645.22;;;1.87;100.00
30339;BME280;795;49.296;11.348;2023-03-04T13:45:43;96639.00;;;1.75;100.00
30339;BME280;795;49.296;11.348;2023-03-04T13:48:31;96644.31;;;1.75;100.00
30339;BME280;795;49.296;11.348;2023-03-04T13:50:59;96639.56;;;1.55;100.00
30339;BME280;795;49.296;11.348;2023-03-04T13:53:39;96643.78;;;1.70;100.00
30339;BME280;795;49.296;11.348;2023-03-04T13:58:45;96635.31;;;1.65;100.00
30339;BME280;795;49.296;11.348;2023-03-04T14:01:28;96635.13;;;1.68;100.00
30339;BME280;795;49.296;11.348;2023-03-04T14:03:59;96640.00;;;1.62;100.00
30339;BME280;795;49.296;11.348;2023-03-04T14:06:30;96633.19;;;1.70;100.00
30339;BME280;795;49.296;11.348;2023-03-04T14:08:57;96631.41;;;1.71;100.00
30339;BME280;795;49.296;11.348;2023-03-04T14:11:38;96605.88;;;1.70;100.00
30339;BME280;795;49.296;11.348;2023-03-04T14:14:22;96631.44;;;1.94;100.00
30339;BME280;795;49.296;11.348;2023-03-04T14:16:56;96629.16;;;1.77;100.00
30339;BME280;795;49.296;11.348;2023-03-04T14:19:37;96628.03;;;1.69;100.00
30339;BME280;795;49.296;11.348;2023-03-04T14:22:38;96622.75;;;1.69;100.00
30339;BME280;795;49.296;11.348;2023-03-04T14:25:31;96613.00;;;1.69;100.00
30339;BME280;795;49.296;11.348;2023-03-04T14:28:12;96618.34;;;1.80;100.00
30339;BME280;795;49.296;11.348;2023-03-04T14:30:41;96617.53;;;1.67;100.00
30339;BME280;795;49.296;11.348;2023-03-04T14:33:29;96606.47;;;1.62;100.00
30339;BME280;795;49.296;11.348;2023-03-04T14:36:01;96616.38;;;1.71;100.00
30339;BME280;795;49.296;11.348;2023-03-04T14:38:37;96609.91;;;1.75;100.00